EZY3870 LOWW-EGPH
Flight info
| Callsign | EZY3870 |
|---|---|
| Flight time | 2h 15m |
| Altitude | 38000 |
| Route | BUWUT DCT DITIS DCT VARIK L602 SODRO DCT KATCE DCT RKN DCT BERGI L602 NALAX L46 ESHIN N110 ERKIT DCT AGPED |
| Aircraft | A20N/M-SDE2E3FGHIRWXY/LB1 |
Departure
| Time | 2026-05-07 06:46 |
|---|---|
| Airport | Vienna International Airport (LOWW) |
Arrival
| Time | 2026-05-07 09:01 |
|---|---|
| Airport | Edinburgh Airport (EGPH) |
| Time | Latitude | Longitude | Altitude | Speed | Heading |
|---|---|---|---|---|---|
| 2026-05-07 06:23 | 48.11904 | 16.55701 | 609 ft | 0 kts | 25° |
| 2026-05-07 06:36 | 48.11901 | 16.55699 | 609 ft | 3 kts | 25° |
| 2026-05-07 06:36 | 48.11878 | 16.55681 | 601 ft | 4 kts | 31° |
| 2026-05-07 06:36 | 48.11855 | 16.55659 | 619 ft | 4 kts | 43° |
| 2026-05-07 06:37 | 48.11841 | 16.55629 | 622 ft | 4 kts | 92° |
| 2026-05-07 06:37 | 48.11841 | 16.55617 | 627 ft | 1 kts | 116° |
| 2026-05-07 06:40 | 48.11832 | 16.55647 | 625 ft | 7 kts | 116° |
| 2026-05-07 06:40 | 48.11804 | 16.55731 | 616 ft | 9 kts | 115° |
| 2026-05-07 06:41 | 48.11750 | 16.55791 | 613 ft | 12 kts | 182° |
| 2026-05-07 06:41 | 48.11677 | 16.55839 | 610 ft | 14 kts | 120° |
| 2026-05-07 06:41 | 48.11631 | 16.55981 | 620 ft | 17 kts | 116° |
| 2026-05-07 06:41 | 48.11576 | 16.56149 | 613 ft | 19 kts | 116° |
| 2026-05-07 06:42 | 48.11520 | 16.56322 | 619 ft | 17 kts | 115° |
| 2026-05-07 06:42 | 48.11467 | 16.56485 | 613 ft | 19 kts | 116° |
| 2026-05-07 06:42 | 48.11412 | 16.56656 | 615 ft | 18 kts | 116° |
| 2026-05-07 06:42 | 48.11355 | 16.56829 | 616 ft | 20 kts | 116° |
| 2026-05-07 06:43 | 48.11291 | 16.57025 | 618 ft | 22 kts | 116° |
| 2026-05-07 06:43 | 48.11234 | 16.57200 | 618 ft | 17 kts | 117° |
| 2026-05-07 06:43 | 48.11187 | 16.57341 | 619 ft | 12 kts | 116° |
| 2026-05-07 06:43 | 48.11150 | 16.57459 | 616 ft | 11 kts | 115° |
| 2026-05-07 06:44 | 48.11111 | 16.57530 | 617 ft | 9 kts | 162° |
| 2026-05-07 06:44 | 48.11062 | 16.57518 | 610 ft | 7 kts | 202° |
| 2026-05-07 06:44 | 48.11012 | 16.57482 | 622 ft | 9 kts | 206° |
| 2026-05-07 06:44 | 48.10964 | 16.57411 | 613 ft | 11 kts | 262° |
| 2026-05-07 06:45 | 48.10982 | 16.57320 | 614 ft | 10 kts | 294° |
| 2026-05-07 06:45 | 48.11074 | 16.57039 | 618 ft | 63 kts | 296° |
| 2026-05-07 06:45 | 48.11366 | 16.56147 | 624 ft | 125 kts | 296° |
| 2026-05-07 06:45 | 48.11816 | 16.54761 | 634 ft | 169 kts | 296° |
| 2026-05-07 06:46 | 48.12339 | 16.53198 | 1319 ft | 165 kts | 293° |
| 2026-05-07 06:46 | 48.12574 | 16.51565 | 2215 ft | 158 kts | 270° |
| 2026-05-07 06:46 | 48.12395 | 16.49974 | 3083 ft | 153 kts | 259° |
| 2026-05-07 06:46 | 48.12095 | 16.48385 | 3675 ft | 168 kts | 256° |
| 2026-05-07 06:47 | 48.11801 | 16.46603 | 4242 ft | 184 kts | 266° |
| 2026-05-07 06:47 | 48.11854 | 16.44612 | 4771 ft | 201 kts | 276° |
| 2026-05-07 06:47 | 48.12060 | 16.42388 | 5148 ft | 230 kts | 278° |
| 2026-05-07 06:47 | 48.12323 | 16.39907 | 5645 ft | 253 kts | 278° |
| 2026-05-07 06:48 | 48.12617 | 16.37219 | 6323 ft | 267 kts | 278° |
| 2026-05-07 06:48 | 48.12919 | 16.34455 | 7212 ft | 269 kts | 277° |
| 2026-05-07 06:48 | 48.13220 | 16.31679 | 8175 ft | 271 kts | 276° |
| 2026-05-07 06:48 | 48.13521 | 16.28877 | 9075 ft | 276 kts | 276° |
| 2026-05-07 06:49 | 48.13821 | 16.26019 | 9976 ft | 279 kts | 275° |
| 2026-05-07 06:49 | 48.14194 | 16.23110 | 10598 ft | 296 kts | 285° |
| 2026-05-07 06:49 | 48.15279 | 16.20336 | 10905 ft | 326 kts | 308° |
| 2026-05-07 06:49 | 48.16920 | 16.17826 | 11324 ft | 344 kts | 313° |
| 2026-05-07 06:50 | 48.18670 | 16.15424 | 12122 ft | 347 kts | 314° |
| 2026-05-07 06:50 | 48.20466 | 16.12978 | 12959 ft | 351 kts | 314° |
| 2026-05-07 06:50 | 48.22272 | 16.10473 | 13776 ft | 355 kts | 313° |
| 2026-05-07 06:50 | 48.24079 | 16.07922 | 14479 ft | 359 kts | 313° |
| 2026-05-07 06:51 | 48.25896 | 16.05327 | 15166 ft | 363 kts | 312° |
| 2026-05-07 06:51 | 48.27733 | 16.02686 | 15859 ft | 367 kts | 311° |
| 2026-05-07 06:51 | 48.29589 | 16.00012 | 16537 ft | 372 kts | 311° |
| 2026-05-07 06:51 | 48.31470 | 15.97297 | 17181 ft | 377 kts | 311° |
| 2026-05-07 06:52 | 48.33369 | 15.94553 | 17839 ft | 381 kts | 311° |
| 2026-05-07 06:52 | 48.35292 | 15.91772 | 18451 ft | 386 kts | 310° |
| 2026-05-07 06:52 | 48.37235 | 15.88960 | 19034 ft | 389 kts | 310° |
| 2026-05-07 06:52 | 48.39194 | 15.86123 | 19612 ft | 393 kts | 310° |
| 2026-05-07 06:53 | 48.41172 | 15.83255 | 20194 ft | 396 kts | 310° |
| 2026-05-07 06:53 | 48.43164 | 15.80363 | 20779 ft | 399 kts | 309° |
| 2026-05-07 06:53 | 48.45169 | 15.77449 | 21360 ft | 402 kts | 309° |
| 2026-05-07 06:53 | 48.47193 | 15.74502 | 21945 ft | 406 kts | 309° |
| 2026-05-07 06:54 | 48.49230 | 15.71534 | 22532 ft | 408 kts | 309° |
| 2026-05-07 06:54 | 48.51279 | 15.68546 | 23116 ft | 412 kts | 309° |
| 2026-05-07 06:54 | 48.53345 | 15.65528 | 23666 ft | 414 kts | 309° |
| 2026-05-07 06:54 | 48.55396 | 15.62529 | 24146 ft | 417 kts | 309° |
| 2026-05-07 06:55 | 48.57482 | 15.59474 | 24604 ft | 420 kts | 309° |
| 2026-05-07 06:55 | 48.59585 | 15.56390 | 25057 ft | 423 kts | 309° |
| 2026-05-07 06:55 | 48.61705 | 15.53277 | 25457 ft | 427 kts | 308° |
| 2026-05-07 06:55 | 48.63841 | 15.50137 | 25869 ft | 430 kts | 308° |
| 2026-05-07 06:56 | 48.65993 | 15.46971 | 26296 ft | 433 kts | 308° |
| 2026-05-07 06:56 | 48.68158 | 15.43781 | 26683 ft | 436 kts | 308° |
| 2026-05-07 06:56 | 48.70339 | 15.40562 | 27081 ft | 439 kts | 308° |
| 2026-05-07 06:56 | 48.72543 | 15.37307 | 27461 ft | 443 kts | 308° |
| 2026-05-07 06:57 | 48.74755 | 15.34034 | 27847 ft | 445 kts | 308° |
| 2026-05-07 06:57 | 48.76976 | 15.30747 | 28216 ft | 448 kts | 308° |
| 2026-05-07 06:57 | 48.79211 | 15.27433 | 28581 ft | 451 kts | 308° |
| 2026-05-07 06:57 | 48.81461 | 15.24093 | 28931 ft | 453 kts | 308° |
| 2026-05-07 06:58 | 48.83717 | 15.20739 | 29265 ft | 456 kts | 308° |
| 2026-05-07 06:58 | 48.85990 | 15.17355 | 29596 ft | 458 kts | 308° |
| 2026-05-07 06:58 | 48.88244 | 15.13994 | 29911 ft | 461 kts | 308° |
| 2026-05-07 06:58 | 48.90444 | 15.10465 | 30208 ft | 457 kts | 302° |
| 2026-05-07 06:59 | 48.92438 | 15.06712 | 30521 ft | 457 kts | 301° |
| 2026-05-07 06:59 | 48.94447 | 15.02943 | 30827 ft | 459 kts | 301° |
| 2026-05-07 06:59 | 48.96468 | 14.99169 | 31160 ft | 460 kts | 301° |
| 2026-05-07 06:59 | 48.98486 | 14.95401 | 31560 ft | 459 kts | 301° |
| 2026-05-07 07:00 | 49.00506 | 14.91621 | 31969 ft | 458 kts | 301° |
| 2026-05-07 07:00 | 49.02516 | 14.87849 | 32377 ft | 457 kts | 301° |
| 2026-05-07 07:00 | 49.04508 | 14.84099 | 32777 ft | 455 kts | 301° |
| 2026-05-07 07:00 | 49.06497 | 14.80346 | 33161 ft | 454 kts | 301° |
| 2026-05-07 07:01 | 49.08480 | 14.76598 | 33534 ft | 453 kts | 301° |
| 2026-05-07 07:01 | 49.10456 | 14.72858 | 33884 ft | 452 kts | 301° |
| 2026-05-07 07:01 | 49.12399 | 14.69176 | 34159 ft | 452 kts | 301° |
| 2026-05-07 07:01 | 49.14374 | 14.65426 | 34404 ft | 452 kts | 301° |
| 2026-05-07 07:02 | 49.16342 | 14.61684 | 34638 ft | 452 kts | 301° |
| 2026-05-07 07:02 | 49.18313 | 14.57930 | 34874 ft | 452 kts | 301° |
| 2026-05-07 07:02 | 49.20290 | 14.54162 | 35105 ft | 453 kts | 301° |
| 2026-05-07 07:02 | 49.22258 | 14.50405 | 35346 ft | 452 kts | 302° |
| 2026-05-07 07:03 | 49.24226 | 14.46645 | 35572 ft | 452 kts | 302° |
| 2026-05-07 07:03 | 49.26192 | 14.42882 | 35798 ft | 452 kts | 302° |
| 2026-05-07 07:03 | 49.28157 | 14.39115 | 36014 ft | 452 kts | 302° |
| 2026-05-07 07:03 | 49.30119 | 14.35349 | 36234 ft | 452 kts | 302° |
| 2026-05-07 07:04 | 49.32080 | 14.31581 | 36458 ft | 452 kts | 302° |
| 2026-05-07 07:04 | 49.34032 | 14.27823 | 36669 ft | 451 kts | 302° |
| 2026-05-07 07:04 | 49.35961 | 14.24107 | 36870 ft | 451 kts | 302° |
| 2026-05-07 07:04 | 49.37938 | 14.20291 | 37061 ft | 451 kts | 302° |
| 2026-05-07 07:05 | 49.39889 | 14.16521 | 37253 ft | 450 kts | 302° |
| 2026-05-07 07:05 | 49.41807 | 14.12810 | 37448 ft | 450 kts | 302° |
| 2026-05-07 07:05 | 49.43753 | 14.09038 | 37627 ft | 450 kts | 303° |
| 2026-05-07 07:05 | 49.45693 | 14.05274 | 37818 ft | 449 kts | 303° |
| 2026-05-07 07:06 | 49.47632 | 14.01505 | 37923 ft | 449 kts | 303° |
| 2026-05-07 07:06 | 49.49573 | 13.97728 | 37921 ft | 448 kts | 303° |
| 2026-05-07 07:06 | 49.53426 | 13.90215 | 37921 ft | 447 kts | 303° |
| 2026-05-07 07:07 | 49.57280 | 13.82677 | 37923 ft | 448 kts | 303° |
| 2026-05-07 07:07 | 49.61125 | 13.75136 | 37919 ft | 447 kts | 303° |
| 2026-05-07 07:08 | 49.64966 | 13.67580 | 37914 ft | 447 kts | 303° |
| 2026-05-07 07:08 | 49.68777 | 13.60066 | 37913 ft | 447 kts | 303° |
| 2026-05-07 07:09 | 49.72603 | 13.52497 | 37911 ft | 447 kts | 303° |
| 2026-05-07 07:09 | 49.76418 | 13.44929 | 37910 ft | 446 kts | 303° |
| 2026-05-07 07:10 | 49.80231 | 13.37343 | 37905 ft | 446 kts | 303° |
| 2026-05-07 07:10 | 49.84032 | 13.29760 | 37905 ft | 445 kts | 303° |
| 2026-05-07 07:11 | 49.87826 | 13.22167 | 37905 ft | 445 kts | 303° |
| 2026-05-07 07:11 | 49.91620 | 13.14554 | 37917 ft | 446 kts | 303° |
| 2026-05-07 07:12 | 49.95413 | 13.06921 | 37899 ft | 446 kts | 303° |
| 2026-05-07 07:12 | 49.99199 | 12.99279 | 37903 ft | 446 kts | 303° |
| 2026-05-07 07:13 | 50.02956 | 12.91675 | 37902 ft | 447 kts | 303° |
| 2026-05-07 07:13 | 50.06738 | 12.83997 | 37906 ft | 447 kts | 304° |
| 2026-05-07 07:14 | 50.10519 | 12.76298 | 37905 ft | 448 kts | 304° |
| 2026-05-07 07:14 | 50.14298 | 12.68583 | 37900 ft | 448 kts | 304° |
| 2026-05-07 07:15 | 50.18076 | 12.60845 | 37902 ft | 448 kts | 304° |
| 2026-05-07 07:15 | 50.21858 | 12.53076 | 37900 ft | 449 kts | 304° |
| 2026-05-07 07:16 | 50.25616 | 12.45338 | 37900 ft | 451 kts | 304° |
| 2026-05-07 07:16 | 50.29144 | 12.37263 | 37895 ft | 448 kts | 296° |
| 2026-05-07 07:17 | 50.31899 | 12.28594 | 37898 ft | 445 kts | 291° |
| 2026-05-07 07:17 | 50.34509 | 12.19801 | 37903 ft | 446 kts | 292° |
| 2026-05-07 07:18 | 50.37281 | 12.11104 | 37909 ft | 447 kts | 294° |
| 2026-05-07 07:18 | 50.40126 | 12.02454 | 37908 ft | 446 kts | 294° |
| 2026-05-07 07:19 | 50.42936 | 11.93770 | 37904 ft | 446 kts | 294° |
| 2026-05-07 07:19 | 50.45796 | 11.85204 | 37903 ft | 447 kts | 298° |
| 2026-05-07 07:20 | 50.49469 | 11.77264 | 37895 ft | 451 kts | 308° |
| 2026-05-07 07:20 | 50.53568 | 11.69787 | 37889 ft | 451 kts | 307° |
| 2026-05-07 07:21 | 50.57643 | 11.62277 | 37886 ft | 451 kts | 307° |
| 2026-05-07 07:21 | 50.61718 | 11.54762 | 37883 ft | 452 kts | 308° |
| 2026-05-07 07:22 | 50.65774 | 11.47266 | 37890 ft | 452 kts | 308° |
| 2026-05-07 07:22 | 50.69854 | 11.39706 | 37896 ft | 453 kts | 308° |
| 2026-05-07 07:23 | 50.73934 | 11.32125 | 37906 ft | 454 kts | 308° |
| 2026-05-07 07:23 | 50.77321 | 11.25815 | 37905 ft | 452 kts | 308° |
| 2026-05-07 07:24 | 50.81378 | 11.18234 | 37907 ft | 452 kts | 308° |
| 2026-05-07 07:24 | 50.85437 | 11.10628 | 37910 ft | 452 kts | 308° |
| 2026-05-07 07:25 | 50.91509 | 10.99206 | 37911 ft | 452 kts | 308° |
| 2026-05-07 07:26 | 50.95554 | 10.91570 | 37908 ft | 451 kts | 308° |
| 2026-05-07 07:26 | 50.99586 | 10.83935 | 37910 ft | 451 kts | 308° |
| 2026-05-07 07:27 | 51.03589 | 10.76332 | 37927 ft | 452 kts | 308° |
| 2026-05-07 07:27 | 51.07617 | 10.68660 | 37925 ft | 451 kts | 308° |
| 2026-05-07 07:28 | 51.11630 | 10.60993 | 37926 ft | 451 kts | 307° |
| 2026-05-07 07:28 | 51.15639 | 10.53310 | 37917 ft | 451 kts | 308° |
| 2026-05-07 07:29 | 51.19640 | 10.45620 | 37916 ft | 450 kts | 307° |
| 2026-05-07 07:29 | 51.23487 | 10.37833 | 37918 ft | 449 kts | 302° |
| 2026-05-07 07:30 | 51.26598 | 10.29244 | 37909 ft | 446 kts | 293° |
| 2026-05-07 07:30 | 51.29044 | 10.20148 | 37913 ft | 446 kts | 291° |
| 2026-05-07 07:31 | 51.31476 | 10.11034 | 37922 ft | 446 kts | 291° |
| 2026-05-07 07:31 | 51.33889 | 10.01905 | 37926 ft | 446 kts | 291° |
| 2026-05-07 07:32 | 51.36290 | 9.92739 | 37931 ft | 446 kts | 291° |
| 2026-05-07 07:32 | 51.38683 | 9.83562 | 37947 ft | 447 kts | 291° |
| 2026-05-07 07:33 | 51.41069 | 9.74373 | 37952 ft | 447 kts | 291° |
| 2026-05-07 07:33 | 51.43449 | 9.65169 | 37977 ft | 447 kts | 291° |
| 2026-05-07 07:34 | 51.45808 | 9.56012 | 37974 ft | 447 kts | 290° |
| 2026-05-07 07:34 | 51.48172 | 9.46800 | 37969 ft | 446 kts | 290° |
| 2026-05-07 07:35 | 51.50528 | 9.37577 | 37974 ft | 446 kts | 290° |
| 2026-05-07 07:35 | 51.52878 | 9.28344 | 37964 ft | 446 kts | 290° |
| 2026-05-07 07:36 | 51.55199 | 9.19181 | 37963 ft | 446 kts | 290° |
| 2026-05-07 07:36 | 51.57529 | 9.09950 | 37966 ft | 445 kts | 290° |
| 2026-05-07 07:37 | 51.59849 | 9.00722 | 37974 ft | 445 kts | 290° |
| 2026-05-07 07:37 | 51.62164 | 8.91470 | 37983 ft | 445 kts | 290° |
| 2026-05-07 07:38 | 51.64465 | 8.82240 | 37989 ft | 444 kts | 290° |
| 2026-05-07 07:38 | 51.66761 | 8.72991 | 37991 ft | 444 kts | 290° |
| 2026-05-07 07:39 | 51.69031 | 8.63808 | 37990 ft | 444 kts | 290° |
| 2026-05-07 07:39 | 51.71309 | 8.54555 | 37987 ft | 444 kts | 290° |
| 2026-05-07 07:40 | 51.73580 | 8.45290 | 37986 ft | 444 kts | 290° |
| 2026-05-07 07:40 | 51.75843 | 8.36020 | 37990 ft | 444 kts | 290° |
| 2026-05-07 07:41 | 51.78102 | 8.26725 | 37989 ft | 444 kts | 290° |
| 2026-05-07 07:41 | 51.80334 | 8.17503 | 37995 ft | 444 kts | 290° |
| 2026-05-07 07:42 | 51.82575 | 8.08203 | 38000 ft | 444 kts | 290° |
| 2026-05-07 07:42 | 51.84809 | 7.98897 | 38004 ft | 444 kts | 290° |
| 2026-05-07 07:43 | 51.87029 | 7.89606 | 38010 ft | 444 kts | 290° |
| 2026-05-07 07:43 | 51.89250 | 7.80272 | 38017 ft | 444 kts | 290° |
| 2026-05-07 07:44 | 51.91463 | 7.70932 | 38019 ft | 444 kts | 290° |
| 2026-05-07 07:44 | 51.93666 | 7.61593 | 38023 ft | 444 kts | 290° |
| 2026-05-07 07:45 | 51.95853 | 7.52281 | 38025 ft | 444 kts | 289° |
| 2026-05-07 07:45 | 51.98040 | 7.42926 | 38022 ft | 443 kts | 289° |
| 2026-05-07 07:46 | 52.00222 | 7.33552 | 38021 ft | 443 kts | 289° |
| 2026-05-07 07:46 | 52.02392 | 7.24193 | 38021 ft | 443 kts | 289° |
| 2026-05-07 07:47 | 52.04558 | 7.14806 | 38021 ft | 443 kts | 289° |
| 2026-05-07 07:47 | 52.06699 | 7.05491 | 38020 ft | 443 kts | 289° |
| 2026-05-07 07:48 | 52.08847 | 6.96099 | 38026 ft | 443 kts | 289° |
| 2026-05-07 07:48 | 52.10986 | 6.86715 | 38023 ft | 443 kts | 289° |
| 2026-05-07 07:49 | 52.13120 | 6.77327 | 38025 ft | 442 kts | 289° |
| 2026-05-07 07:49 | 52.15456 | 6.68058 | 38026 ft | 443 kts | 293° |
| 2026-05-07 07:50 | 52.17995 | 6.58887 | 38027 ft | 443 kts | 293° |
| 2026-05-07 07:50 | 52.20464 | 6.49770 | 38031 ft | 443 kts | 292° |
| 2026-05-07 07:51 | 52.22924 | 6.40541 | 38034 ft | 443 kts | 292° |
| 2026-05-07 07:51 | 52.25371 | 6.31307 | 38033 ft | 443 kts | 292° |
| 2026-05-07 07:52 | 52.27807 | 6.22077 | 38037 ft | 443 kts | 292° |
| 2026-05-07 07:52 | 52.30230 | 6.12864 | 38040 ft | 443 kts | 292° |
| 2026-05-07 07:53 | 52.32645 | 6.03641 | 38048 ft | 443 kts | 292° |
| 2026-05-07 07:53 | 52.35063 | 5.94371 | 38042 ft | 443 kts | 292° |
| 2026-05-07 07:54 | 52.37472 | 5.85094 | 38045 ft | 443 kts | 292° |
| 2026-05-07 07:54 | 52.39873 | 5.75811 | 38054 ft | 443 kts | 292° |
| 2026-05-07 07:55 | 52.42255 | 5.66567 | 38054 ft | 443 kts | 292° |
| 2026-05-07 07:55 | 52.43715 | 5.60882 | 38056 ft | 443 kts | 292° |
| 2026-05-07 07:56 | 52.46002 | 5.51947 | 38048 ft | 443 kts | 292° |
| 2026-05-07 07:56 | 52.48375 | 5.42635 | 38042 ft | 441 kts | 291° |
| 2026-05-07 07:57 | 52.50736 | 5.33334 | 38044 ft | 442 kts | 291° |
| 2026-05-07 07:57 | 52.53088 | 5.24027 | 38049 ft | 441 kts | 291° |
| 2026-05-07 07:58 | 52.55437 | 5.14699 | 38053 ft | 442 kts | 291° |
| 2026-05-07 07:58 | 52.57763 | 5.05416 | 38059 ft | 442 kts | 291° |
| 2026-05-07 07:59 | 52.60096 | 4.96073 | 38047 ft | 442 kts | 291° |
| 2026-05-07 07:59 | 52.62428 | 4.86686 | 38047 ft | 442 kts | 291° |
| 2026-05-07 08:00 | 52.64750 | 4.77306 | 38049 ft | 442 kts | 291° |
| 2026-05-07 08:00 | 52.67048 | 4.67980 | 38067 ft | 442 kts | 291° |
| 2026-05-07 08:01 | 52.69352 | 4.58595 | 38061 ft | 442 kts | 291° |
| 2026-05-07 08:01 | 52.71650 | 4.49192 | 38057 ft | 442 kts | 291° |
| 2026-05-07 08:02 | 52.73938 | 4.39792 | 38062 ft | 442 kts | 291° |
| 2026-05-07 08:02 | 52.76637 | 4.30686 | 38063 ft | 442 kts | 298° |
| 2026-05-07 08:03 | 52.79660 | 4.21830 | 38067 ft | 442 kts | 298° |
| 2026-05-07 08:03 | 52.82665 | 4.12959 | 38068 ft | 442 kts | 298° |
| 2026-05-07 08:04 | 52.85661 | 4.04072 | 38073 ft | 442 kts | 298° |
| 2026-05-07 08:04 | 52.88646 | 3.95182 | 38082 ft | 441 kts | 298° |
| 2026-05-07 08:05 | 52.91622 | 3.86290 | 38076 ft | 442 kts | 298° |
| 2026-05-07 08:05 | 52.94596 | 3.77370 | 38076 ft | 442 kts | 298° |
| 2026-05-07 08:06 | 52.97541 | 3.68507 | 38085 ft | 442 kts | 298° |
| 2026-05-07 08:06 | 53.00501 | 3.59574 | 38093 ft | 441 kts | 298° |
| 2026-05-07 08:07 | 53.03452 | 3.50631 | 38088 ft | 442 kts | 298° |
| 2026-05-07 08:07 | 53.06397 | 3.41665 | 38089 ft | 441 kts | 298° |
| 2026-05-07 08:08 | 53.09175 | 3.32564 | 38084 ft | 441 kts | 292° |
| 2026-05-07 08:08 | 53.11075 | 3.22859 | 38082 ft | 441 kts | 283° |
| 2026-05-07 08:09 | 53.12400 | 3.12866 | 38080 ft | 442 kts | 282° |
| 2026-05-07 08:09 | 53.13727 | 3.02960 | 38084 ft | 441 kts | 282° |
| 2026-05-07 08:10 | 53.15044 | 2.92962 | 38084 ft | 442 kts | 282° |
| 2026-05-07 08:10 | 53.16348 | 2.82949 | 38088 ft | 441 kts | 282° |
| 2026-05-07 08:11 | 53.17422 | 2.74644 | 38095 ft | 442 kts | 282° |
| 2026-05-07 08:11 | 53.18710 | 2.64620 | 38091 ft | 442 kts | 282° |
| 2026-05-07 08:12 | 53.19990 | 2.54593 | 38085 ft | 442 kts | 282° |
| 2026-05-07 08:12 | 53.21263 | 2.44541 | 38089 ft | 442 kts | 282° |
| 2026-05-07 08:13 | 53.22524 | 2.34511 | 38090 ft | 442 kts | 282° |
| 2026-05-07 08:13 | 53.23772 | 2.24519 | 38093 ft | 442 kts | 282° |
| 2026-05-07 08:14 | 53.25020 | 2.14453 | 38091 ft | 442 kts | 281° |
| 2026-05-07 08:14 | 53.26259 | 2.04379 | 38092 ft | 442 kts | 281° |
| 2026-05-07 08:15 | 53.27489 | 1.94305 | 38097 ft | 443 kts | 281° |
| 2026-05-07 08:15 | 53.28704 | 1.84282 | 38089 ft | 443 kts | 281° |
| 2026-05-07 08:16 | 53.29918 | 1.74192 | 38090 ft | 443 kts | 281° |
| 2026-05-07 08:16 | 53.31124 | 1.64090 | 38086 ft | 443 kts | 281° |
| 2026-05-07 08:17 | 53.32322 | 1.53970 | 38090 ft | 443 kts | 281° |
| 2026-05-07 08:17 | 53.33630 | 1.43903 | 38091 ft | 443 kts | 284° |
| 2026-05-07 08:18 | 53.35138 | 1.33906 | 38087 ft | 443 kts | 284° |
| 2026-05-07 08:18 | 53.36605 | 1.23946 | 38086 ft | 444 kts | 283° |
| 2026-05-07 08:19 | 53.38051 | 1.13890 | 38091 ft | 444 kts | 283° |
| 2026-05-07 08:19 | 53.39484 | 1.03829 | 38098 ft | 444 kts | 283° |
| 2026-05-07 08:20 | 53.40913 | 0.93730 | 38091 ft | 444 kts | 283° |
| 2026-05-07 08:20 | 53.42322 | 0.83704 | 38096 ft | 445 kts | 283° |
| 2026-05-07 08:21 | 53.43736 | 0.73586 | 38099 ft | 445 kts | 283° |
| 2026-05-07 08:21 | 53.45139 | 0.63468 | 38100 ft | 445 kts | 283° |
| 2026-05-07 08:22 | 53.46538 | 0.53320 | 38099 ft | 445 kts | 283° |
| 2026-05-07 08:22 | 53.47915 | 0.43253 | 38092 ft | 446 kts | 283° |
| 2026-05-07 08:23 | 53.49298 | 0.33088 | 38093 ft | 446 kts | 282° |
| 2026-05-07 08:23 | 53.50672 | 0.22900 | 38094 ft | 446 kts | 282° |
| 2026-05-07 08:24 | 53.52025 | 0.12808 | 38100 ft | 446 kts | 282° |
| 2026-05-07 08:24 | 53.53378 | 0.02642 | 38100 ft | 445 kts | 282° |
| 2026-05-07 08:25 | 53.54721 | -0.07522 | 38096 ft | 444 kts | 282° |
| 2026-05-07 08:25 | 53.56053 | -0.17672 | 38102 ft | 444 kts | 282° |
| 2026-05-07 08:26 | 53.60025 | -0.31603 | 38103 ft | 446 kts | 310° |
| 2026-05-07 08:26 | 53.64713 | -0.38430 | 38104 ft | 447 kts | 325° |
| 2026-05-07 08:27 | 53.69857 | -0.44321 | 38105 ft | 447 kts | 325° |
| 2026-05-07 08:27 | 53.74988 | -0.50255 | 38099 ft | 447 kts | 324° |
| 2026-05-07 08:28 | 53.80087 | -0.56172 | 38091 ft | 447 kts | 324° |
| 2026-05-07 08:28 | 53.85213 | -0.62136 | 38086 ft | 447 kts | 324° |
| 2026-05-07 08:29 | 53.90337 | -0.68114 | 38080 ft | 447 kts | 324° |
| 2026-05-07 08:29 | 53.95456 | -0.74106 | 38081 ft | 447 kts | 324° |
| 2026-05-07 08:30 | 54.00577 | -0.80118 | 38077 ft | 447 kts | 324° |
| 2026-05-07 08:30 | 54.05791 | -0.85745 | 38076 ft | 447 kts | 329° |
| 2026-05-07 08:31 | 54.11168 | -0.91097 | 38077 ft | 447 kts | 328° |
| 2026-05-07 08:31 | 54.16528 | -0.96464 | 38077 ft | 447 kts | 328° |
| 2026-05-07 08:32 | 54.21887 | -1.01838 | 38074 ft | 447 kts | 328° |
| 2026-05-07 08:32 | 54.27244 | -1.07224 | 38078 ft | 446 kts | 328° |
| 2026-05-07 08:33 | 54.32594 | -1.12622 | 38077 ft | 446 kts | 328° |
| 2026-05-07 08:33 | 54.37946 | -1.18036 | 38078 ft | 446 kts | 328° |
| 2026-05-07 08:34 | 54.43254 | -1.23423 | 38082 ft | 446 kts | 328° |
| 2026-05-07 08:34 | 54.48595 | -1.28861 | 38087 ft | 446 kts | 328° |
| 2026-05-07 08:35 | 54.53918 | -1.34295 | 38074 ft | 443 kts | 328° |
| 2026-05-07 08:35 | 54.56573 | -1.37013 | 37969 ft | 444 kts | 328° |
| 2026-05-07 08:35 | 54.59225 | -1.39730 | 37525 ft | 444 kts | 328° |
| 2026-05-07 08:36 | 54.61881 | -1.42457 | 36841 ft | 445 kts | 328° |
| 2026-05-07 08:36 | 54.64556 | -1.45208 | 36006 ft | 448 kts | 328° |
| 2026-05-07 08:36 | 54.67241 | -1.47973 | 35128 ft | 451 kts | 328° |
| 2026-05-07 08:36 | 54.69943 | -1.50760 | 34330 ft | 453 kts | 328° |
| 2026-05-07 08:37 | 54.72645 | -1.53550 | 33492 ft | 452 kts | 328° |
| 2026-05-07 08:37 | 54.75341 | -1.56338 | 32722 ft | 451 kts | 328° |
| 2026-05-07 08:37 | 54.78025 | -1.59118 | 31941 ft | 450 kts | 328° |
| 2026-05-07 08:37 | 54.80711 | -1.61905 | 31200 ft | 448 kts | 328° |
| 2026-05-07 08:38 | 54.83365 | -1.64662 | 30686 ft | 442 kts | 328° |
| 2026-05-07 08:38 | 54.85943 | -1.67345 | 30122 ft | 437 kts | 327° |
| 2026-05-07 08:38 | 54.88541 | -1.70053 | 29515 ft | 432 kts | 327° |
| 2026-05-07 08:38 | 54.91093 | -1.72719 | 28958 ft | 426 kts | 327° |
| 2026-05-07 08:39 | 54.93613 | -1.75354 | 28413 ft | 420 kts | 327° |
| 2026-05-07 08:39 | 54.96107 | -1.77965 | 27869 ft | 415 kts | 327° |
| 2026-05-07 08:39 | 54.98567 | -1.80545 | 27327 ft | 410 kts | 327° |
| 2026-05-07 08:39 | 55.00996 | -1.83096 | 26800 ft | 405 kts | 327° |
| 2026-05-07 08:40 | 55.03400 | -1.85624 | 26268 ft | 401 kts | 327° |
| 2026-05-07 08:40 | 55.05782 | -1.88134 | 25746 ft | 397 kts | 327° |
| 2026-05-07 08:40 | 55.08143 | -1.90625 | 25214 ft | 394 kts | 327° |
| 2026-05-07 08:40 | 55.10423 | -1.93238 | 24686 ft | 390 kts | 320° |
| 2026-05-07 08:41 | 55.12378 | -1.96453 | 24178 ft | 385 kts | 309° |
| 2026-05-07 08:41 | 55.13931 | -2.00145 | 23635 ft | 380 kts | 299° |
| 2026-05-07 08:41 | 55.15240 | -2.04151 | 23083 ft | 376 kts | 298° |
| 2026-05-07 08:41 | 55.16537 | -2.08096 | 22577 ft | 372 kts | 298° |
| 2026-05-07 08:42 | 55.17824 | -2.11996 | 22058 ft | 367 kts | 298° |
| 2026-05-07 08:42 | 55.19094 | -2.15849 | 21544 ft | 364 kts | 298° |
| 2026-05-07 08:42 | 55.20350 | -2.19671 | 21040 ft | 360 kts | 298° |
| 2026-05-07 08:42 | 55.21591 | -2.23458 | 20540 ft | 357 kts | 298° |
| 2026-05-07 08:43 | 55.22818 | -2.27211 | 20047 ft | 353 kts | 298° |
| 2026-05-07 08:43 | 55.24034 | -2.30938 | 19553 ft | 351 kts | 298° |
| 2026-05-07 08:43 | 55.25226 | -2.34596 | 19072 ft | 348 kts | 297° |
| 2026-05-07 08:43 | 55.26425 | -2.38282 | 18574 ft | 347 kts | 297° |
| 2026-05-07 08:44 | 55.27615 | -2.41942 | 18055 ft | 345 kts | 297° |
| 2026-05-07 08:44 | 55.28796 | -2.45584 | 17563 ft | 341 kts | 297° |
| 2026-05-07 08:44 | 55.29964 | -2.49190 | 17079 ft | 338 kts | 297° |
| 2026-05-07 08:44 | 55.31119 | -2.52762 | 16604 ft | 335 kts | 297° |
| 2026-05-07 08:45 | 55.32266 | -2.56312 | 16124 ft | 333 kts | 297° |
| 2026-05-07 08:45 | 55.33402 | -2.59836 | 15647 ft | 330 kts | 297° |
| 2026-05-07 08:45 | 55.34529 | -2.63337 | 15178 ft | 328 kts | 297° |
| 2026-05-07 08:45 | 55.35652 | -2.66831 | 14709 ft | 327 kts | 297° |
| 2026-05-07 08:46 | 55.36764 | -2.70297 | 14243 ft | 325 kts | 296° |
| 2026-05-07 08:46 | 55.37872 | -2.73753 | 13773 ft | 324 kts | 296° |
| 2026-05-07 08:46 | 55.38960 | -2.77151 | 13293 ft | 322 kts | 296° |
| 2026-05-07 08:46 | 55.40053 | -2.80566 | 12827 ft | 319 kts | 296° |
| 2026-05-07 08:47 | 55.41137 | -2.83962 | 12369 ft | 317 kts | 296° |
| 2026-05-07 08:47 | 55.42213 | -2.87339 | 11929 ft | 315 kts | 296° |
| 2026-05-07 08:47 | 55.43269 | -2.90654 | 11762 ft | 303 kts | 296° |
| 2026-05-07 08:47 | 55.44284 | -2.93840 | 11519 ft | 296 kts | 296° |
| 2026-05-07 08:48 | 55.45295 | -2.96973 | 11236 ft | 290 kts | 300° |
| 2026-05-07 08:48 | 55.46672 | -2.99494 | 11034 ft | 294 kts | 323° |
| 2026-05-07 08:48 | 55.48556 | -3.01020 | 10885 ft | 303 kts | 339° |
| 2026-05-07 08:48 | 55.50561 | -3.02131 | 10628 ft | 300 kts | 340° |
| 2026-05-07 08:49 | 55.52550 | -3.03209 | 10260 ft | 299 kts | 340° |
| 2026-05-07 08:49 | 55.54532 | -3.04287 | 9883 ft | 297 kts | 340° |
| 2026-05-07 08:49 | 55.56503 | -3.05366 | 9493 ft | 295 kts | 340° |
| 2026-05-07 08:49 | 55.58450 | -3.06438 | 9141 ft | 291 kts | 340° |
| 2026-05-07 08:50 | 55.60367 | -3.07500 | 8778 ft | 287 kts | 340° |
| 2026-05-07 08:50 | 55.62263 | -3.08554 | 8411 ft | 284 kts | 339° |
| 2026-05-07 08:50 | 55.64148 | -3.09606 | 8040 ft | 283 kts | 339° |
| 2026-05-07 08:50 | 55.66017 | -3.10650 | 7677 ft | 282 kts | 339° |
| 2026-05-07 08:51 | 55.67857 | -3.11678 | 7316 ft | 280 kts | 339° |
| 2026-05-07 08:51 | 55.69705 | -3.12710 | 7070 ft | 274 kts | 339° |
| 2026-05-07 08:51 | 55.71584 | -3.13383 | 6989 ft | 284 kts | 357° |
| 2026-05-07 08:51 | 55.73521 | -3.12683 | 6944 ft | 284 kts | 19° |
| 2026-05-07 08:52 | 55.75340 | -3.11438 | 6864 ft | 275 kts | 19° |
| 2026-05-07 08:52 | 55.77099 | -3.10221 | 6677 ft | 268 kts | 19° |
| 2026-05-07 08:52 | 55.78836 | -3.09024 | 6382 ft | 266 kts | 19° |
| 2026-05-07 08:52 | 55.80560 | -3.07846 | 6045 ft | 265 kts | 19° |
| 2026-05-07 08:53 | 55.82277 | -3.06676 | 5681 ft | 264 kts | 19° |
| 2026-05-07 08:53 | 55.83990 | -3.05509 | 5377 ft | 263 kts | 19° |
| 2026-05-07 08:53 | 55.85717 | -3.04562 | 5142 ft | 257 kts | 8° |
| 2026-05-07 08:53 | 55.87462 | -3.04023 | 4916 ft | 253 kts | 7° |
| 2026-05-07 08:54 | 55.89193 | -3.03482 | 4694 ft | 251 kts | 8° |
| 2026-05-07 08:54 | 55.90915 | -3.02939 | 4474 ft | 252 kts | 8° |
| 2026-05-07 08:54 | 55.92624 | -3.02393 | 4254 ft | 253 kts | 8° |
| 2026-05-07 08:54 | 55.94364 | -3.01918 | 4036 ft | 251 kts | 1° |
| 2026-05-07 08:55 | 55.96094 | -3.02040 | 3684 ft | 248 kts | 349° |
| 2026-05-07 08:55 | 55.97801 | -3.02458 | 3284 ft | 247 kts | 349° |
| 2026-05-07 08:55 | 55.99486 | -3.02855 | 3052 ft | 239 kts | 349° |
| 2026-05-07 08:55 | 56.01087 | -3.03223 | 3006 ft | 224 kts | 349° |
| 2026-05-07 08:56 | 56.02429 | -3.04095 | 3010 ft | 198 kts | 312° |
| 2026-05-07 08:56 | 56.03129 | -3.06134 | 3012 ft | 195 kts | 285° |
| 2026-05-07 08:56 | 56.03520 | -3.08407 | 3007 ft | 189 kts | 278° |
| 2026-05-07 08:56 | 56.03582 | -3.10667 | 3032 ft | 173 kts | 258° |
| 2026-05-07 08:57 | 56.03254 | -3.12610 | 3001 ft | 153 kts | 244° |
| 2026-05-07 08:57 | 56.02795 | -3.14230 | 2918 ft | 141 kts | 238° |
| 2026-05-07 08:57 | 56.02305 | -3.15710 | 2738 ft | 136 kts | 236° |
| 2026-05-07 08:57 | 56.01821 | -3.17137 | 2565 ft | 135 kts | 236° |
| 2026-05-07 08:58 | 56.01328 | -3.18585 | 2389 ft | 134 kts | 236° |
| 2026-05-07 08:58 | 56.00847 | -3.20003 | 2203 ft | 133 kts | 235° |
| 2026-05-07 08:58 | 56.00367 | -3.21414 | 2022 ft | 134 kts | 236° |
| 2026-05-07 08:58 | 55.99871 | -3.22875 | 1834 ft | 137 kts | 235° |
| 2026-05-07 08:59 | 55.99375 | -3.24337 | 1649 ft | 136 kts | 234° |
| 2026-05-07 08:59 | 55.98909 | -3.25716 | 1458 ft | 123 kts | 234° |
| 2026-05-07 08:59 | 55.98461 | -3.27030 | 1293 ft | 125 kts | 235° |
| 2026-05-07 08:59 | 55.98020 | -3.28332 | 1115 ft | 124 kts | 235° |
| 2026-05-07 09:00 | 55.97574 | -3.29650 | 934 ft | 123 kts | 235° |
| 2026-05-07 09:00 | 55.97118 | -3.30987 | 745 ft | 127 kts | 236° |
| 2026-05-07 09:00 | 55.96666 | -3.32327 | 589 ft | 125 kts | 237° |
| 2026-05-07 09:00 | 55.96213 | -3.33663 | 419 ft | 126 kts | 237° |
| 2026-05-07 09:01 | 55.95769 | -3.34974 | 238 ft | 120 kts | 237° |
| 2026-05-07 09:01 | 55.95347 | -3.36226 | 108 ft | 113 kts | 237° |
| 2026-05-07 09:01 | 55.95038 | -3.37127 | 111 ft | 57 kts | 239° |
| 2026-05-07 09:01 | 55.94924 | -3.37475 | 111 ft | 22 kts | 238° |
| 2026-05-07 09:02 | 55.94847 | -3.37704 | 115 ft | 21 kts | 240° |
| 2026-05-07 09:02 | 55.94800 | -3.37847 | 114 ft | 19 kts | 238° |
| 2026-05-07 09:02 | 55.94724 | -3.38045 | 113 ft | 9 kts | 214° |
| 2026-05-07 09:02 | 55.94651 | -3.38011 | 112 ft | 14 kts | 149° |
| 2026-05-07 09:03 | 55.94595 | -3.37922 | 111 ft | 10 kts | 106° |
| 2026-05-07 09:03 | 55.94610 | -3.37834 | 111 ft | 12 kts | 59° |
| 2026-05-07 09:03 | 55.94660 | -3.37691 | 112 ft | 16 kts | 58° |
| 2026-05-07 09:03 | 55.94724 | -3.37504 | 110 ft | 20 kts | 59° |
| 2026-05-07 09:04 | 55.94793 | -3.37290 | 111 ft | 22 kts | 59° |
| 2026-05-07 09:04 | 55.94875 | -3.37053 | 112 ft | 22 kts | 59° |
| 2026-05-07 09:04 | 55.94926 | -3.36893 | 112 ft | 11 kts | 76° |
| 2026-05-07 09:04 | 55.94901 | -3.36788 | 111 ft | 10 kts | 109° |
| 2026-05-07 09:05 | 55.94918 | -3.36685 | 111 ft | 5 kts | 58° |
| 2026-05-07 09:05 | 55.94945 | -3.36608 | 112 ft | 9 kts | 58° |
| 2026-05-07 09:05 | 55.94951 | -3.36553 | 112 ft | 4 kts | 117° |
| 2026-05-07 09:05 | 55.94926 | -3.36518 | 112 ft | 5 kts | 147° |
| 2026-05-07 09:06 | 55.94907 | -3.36497 | 109 ft | 1 kts | 148° |
| 2026-05-07 09:06 | 55.94906 | -3.36496 | 110 ft | 0 kts | 148° |